Time;durP1;ratioP1;P1;durP2;ratioP2;P2;SDS_P1;SDS_P2;PMS_P1;PMS_P2;Temp;Humidity;BMP_temperature;BMP_pressure;BME280_temperature;BME280_humidity;BME280_pressure;Samples;Min_cycle;Max_cycle;Signal;HPM_P1;HPM_P2
2023/12/19 00:01:04;;;;;;;64.57;36.30;;;6.40;99.90;;;;;;5083985;28;20028;-45
2023/12/19 00:03:29;;;;;;;64.50;37.05;;;6.40;99.90;;;;;;5083293;28;20063;-44
2023/12/19 00:05:55;;;;;;;64.20;37.80;;;6.40;99.90;;;;;;5084053;28;20027;-44
2023/12/19 00:08:21;;;;;;;60.70;35.08;;;6.40;99.90;;;;;;5082793;28;20044;-46
2023/12/19 00:10:47;;;;;;;64.07;36.97;;;6.40;99.90;;;;;;5088376;28;20040;-44
2023/12/19 00:13:12;;;;;;;71.20;36.63;;;6.40;99.90;;;;;;5089306;28;20133;-44
2023/12/19 00:15:39;;;;;;;64.05;35.83;;;6.40;99.90;;;;;;5088866;28;20058;-43
2023/12/19 00:18:04;;;;;;;59.00;34.17;;;6.40;99.90;;;;;;5078970;28;20464;-45
2023/12/19 00:20:30;;;;;;;59.17;34.35;;;6.40;99.90;;;;;;5078410;28;20043;-45
2023/12/19 00:22:55;;;;;;;61.55;35.30;;;6.40;99.90;;;;;;5083446;28;20386;-45
2023/12/19 00:25:23;;;;;;;59.58;33.75;;;6.40;99.90;;;;;;5079502;28;20127;-44
2023/12/19 00:27:49;;;;;;;56.33;34.15;;;6.40;99.90;;;;;;5078180;28;20102;-46
2023/12/19 00:30:15;;;;;;;61.60;35.13;;;6.40;99.90;;;;;;5082779;28;20036;-44
2023/12/19 00:32:41;;;;;;;57.83;33.10;;;6.40;99.90;;;;;;5090222;28;20044;-44
2023/12/19 00:35:08;;;;;;;55.22;32.67;;;6.40;99.90;;;;;;5087914;28;20113;-45
2023/12/19 00:37:34;;;;;;;49.07;28.77;;;6.50;99.90;;;;;;5080838;28;20543;-44
2023/12/19 00:40:00;;;;;;;53.33;32.33;;;6.40;99.90;;;;;;5089438;28;20131;-44
2023/12/19 00:42:25;;;;;;;54.10;33.28;;;6.40;99.90;;;;;;5074659;28;20036;-47
2023/12/19 00:44:51;;;;;;;47.67;30.67;;;6.50;99.90;;;;;;5090739;28;20484;-44
2023/12/19 00:47:16;;;;;;;49.80;30.83;;;6.40;99.90;;;;;;5086598;28;20386;-45
2023/12/19 00:49:43;;;;;;;50.55;31.50;;;6.40;99.90;;;;;;5087881;28;20121;-44
2023/12/19 00:52:08;;;;;;;50.35;30.98;;;6.40;99.90;;;;;;5088904;28;20083;-44
2023/12/19 00:54:34;;;;;;;47.72;30.85;;;6.50;99.90;;;;;;5088208;28;20060;-46
2023/12/19 00:56:59;;;;;;;49.08;31.80;;;6.40;99.90;;;;;;5087465;28;20488;-44
2023/12/19 00:59:25;;;;;;;49.90;31.33;;;6.50;99.90;;;;;;5086791;28;20065;-44
2023/12/19 01:01:50;;;;;;;48.53;30.55;;;6.50;99.90;;;;;;5088405;28;20072;-43
2023/12/19 01:04:17;;;;;;;48.28;31.05;;;6.40;99.90;;;;;;5088554;28;20040;-44
2023/12/19 01:06:43;;;;;;;50.33;31.23;;;6.40;99.90;;;;;;5064813;28;20063;-45
2023/12/19 01:09:09;;;;;;;45.42;29.60;;;6.40;99.90;;;;;;5088021;28;20043;-44
2023/12/19 01:11:35;;;;;;;46.53;30.17;;;6.50;99.90;;;;;;5083975;28;20040;-45
2023/12/19 01:14:01;;;;;;;49.85;31.33;;;6.40;99.90;;;;;;5086653;28;20036;-44
2023/12/19 01:16:28;;;;;;;48.15;29.92;;;6.50;99.90;;;;;;5087345;28;20574;-44
2023/12/19 01:18:54;;;;;;;46.25;30.35;;;6.50;99.90;;;;;;5083383;28;20040;-45
2023/12/19 01:21:20;;;;;;;44.92;28.83;;;6.40;99.90;;;;;;5078822;28;20508;-45
2023/12/19 01:23:45;;;;;;;46.35;29.63;;;6.50;99.90;;;;;;5086631;28;20079;-45
2023/12/19 01:26:11;;;;;;;46.70;28.00;;;6.50;99.90;;;;;;5083075;28;20040;-46
2023/12/19 01:28:40;;;;;;;40.83;27.33;;;6.50;99.90;;;;;;5059202;28;20714;-44
2023/12/19 01:31:06;;;;;;;46.17;28.75;;;6.40;99.90;;;;;;5079496;28;20415;-44
2023/12/19 01:33:31;;;;;;;48.60;29.15;;;6.50;99.90;;;;;;5080111;28;20039;-47
2023/12/19 01:35:57;;;;;;;44.85;28.73;;;6.40;99.90;;;;;;5085161;28;20043;-45
2023/12/19 01:38:23;;;;;;;40.22;26.85;;;6.40;99.90;;;;;;5085788;28;20452;-44
2023/12/19 01:40:49;;;;;;;44.40;28.02;;;6.40;99.90;;;;;;5081895;28;20486;-45
2023/12/19 01:43:18;;;;;;;41.85;28.27;;;6.50;99.90;;;;;;5088884;28;20548;-45
2023/12/19 01:45:43;;;;;;;48.22;29.30;;;6.50;99.90;;;;;;5084129;28;20122;-44
2023/12/19 01:48:09;;;;;;;47.22;29.27;;;6.40;99.90;;;;;;5085028;28;20119;-45
2023/12/19 01:50:35;;;;;;;50.65;29.50;;;6.40;99.90;;;;;;5085219;28;20086;-44
2023/12/19 01:53:01;;;;;;;44.10;28.13;;;6.50;99.90;;;;;;5071166;28;20087;-44
2023/12/19 01:55:28;;;;;;;47.38;28.98;;;6.40;99.90;;;;;;5084797;28;20040;-45
2023/12/19 01:57:57;;;;;;;48.65;29.95;;;6.50;99.90;;;;;;5084330;28;20036;-45
2023/12/19 02:00:23;;;;;;;41.55;26.33;;;6.50;99.90;;;;;;5085464;28;20085;-45
2023/12/19 02:02:52;;;;;;;45.88;27.30;;;6.50;99.90;;;;;;5086294;28;20107;-44
2023/12/19 02:05:18;;;;;;;47.45;27.98;;;6.50;99.90;;;;;;5086704;28;20101;-45
2023/12/19 02:07:44;;;;;;;43.38;27.10;;;6.50;99.90;;;;;;5085722;28;20043;-45
2023/12/19 02:10:10;;;;;;;45.00;27.45;;;6.50;99.90;;;;;;5086425;28;20044;-45
2023/12/19 02:12:37;;;;;;;43.08;26.73;;;6.40;99.90;;;;;;5084378;28;20097;-44
2023/12/19 02:15:03;;;;;;;41.47;26.40;;;6.50;99.90;;;;;;5084928;28;20032;-45
2023/12/19 02:17:29;;;;;;;37.85;25.05;;;6.50;99.90;;;;;;5082797;28;20119;-45
2023/12/19 02:19:55;;;;;;;38.92;25.60;;;6.50;99.90;;;;;;5087969;28;21427;-45
2023/12/19 02:22:20;;;;;;;41.03;25.98;;;6.50;99.90;;;;;;5084454;28;20385;-46
2023/12/19 02:24:47;;;;;;;40.88;26.38;;;6.50;99.90;;;;;;5086908;28;20361;-44
2023/12/19 02:27:14;;;;;;;40.47;26.30;;;6.50;99.90;;;;;;5085828;28;20142;-44
2023/12/19 02:29:40;;;;;;;41.57;26.07;;;6.50;99.90;;;;;;5085906;28;20390;-46
2023/12/19 02:32:06;;;;;;;41.70;25.38;;;6.50;99.90;;;;;;5087758;28;20274;-45
2023/12/19 02:34:31;;;;;;;40.50;26.15;;;6.50;99.90;;;;;;5085572;28;20036;-43
2023/12/19 02:36:57;;;;;;;38.95;23.85;;;6.50;99.90;;;;;;5084277;28;20063;-44
2023/12/19 02:39:23;;;;;;;36.33;23.63;;;6.50;99.90;;;;;;5080868;28;20040;-44
2023/12/19 02:41:48;;;;;;;38.38;24.58;;;6.50;99.90;;;;;;5088195;28;20089;-45
2023/12/19 02:44:14;;;;;;;37.35;23.75;;;6.50;99.90;;;;;;5086762;28;20032;-46
2023/12/19 02:46:40;;;;;;;35.10;22.33;;;6.50;99.90;;;;;;5087544;28;20036;-44
2023/12/19 02:49:06;;;;;;;36.22;22.42;;;6.50;99.90;;;;;;5080969;28;20120;-45
2023/12/19 02:51:31;;;;;;;33.05;22.23;;;6.50;99.90;;;;;;5082994;28;20489;-44
2023/12/19 02:53:58;;;;;;;34.30;21.73;;;6.50;99.90;;;;;;5085557;28;20028;-45
2023/12/19 02:56:24;;;;;;;31.48;21.70;;;6.50;99.90;;;;;;5086499;28;20409;-44
2023/12/19 02:58:50;;;;;;;32.97;22.52;;;6.60;99.90;;;;;;5085401;28;20048;-45
2023/12/19 03:01:16;;;;;;;35.40;22.55;;;6.60;99.90;;;;;;5085650;28;20063;-44
2023/12/19 03:03:45;;;;;;;29.42;20.80;;;6.50;99.90;;;;;;5064998;28;20044;-45
2023/12/19 03:06:13;;;;;;;28.65;20.52;;;6.60;99.90;;;;;;5081222;28;20580;-45
2023/12/19 03:08:45;;;;;;;28.65;19.73;;;6.60;99.90;;;;;;5077213;28;20059;-44
2023/12/19 03:11:10;;;;;;;29.52;19.70;;;6.50;99.90;;;;;;5064139;28;20342;-46
2023/12/19 03:13:36;;;;;;;30.60;19.83;;;6.50;99.90;;;;;;5064129;28;20043;-44
2023/12/19 03:16:01;;;;;;;31.40;19.65;;;6.50;99.90;;;;;;5083559;28;20146;-45
2023/12/19 03:18:27;;;;;;;30.65;19.40;;;6.60;99.90;;;;;;5080309;28;20059;-44
2023/12/19 03:20:53;;;;;;;25.75;18.73;;;6.60;99.90;;;;;;5063125;28;20051;-44
2023/12/19 03:23:19;;;;;;;26.35;18.08;;;6.60;99.90;;;;;;5082340;28;20477;-44
2023/12/19 03:25:45;;;;;;;25.42;18.90;;;6.50;99.90;;;;;;5084160;28;20452;-45
2023/12/19 03:28:10;;;;;;;27.58;18.83;;;6.60;99.90;;;;;;5084974;28;20564;-44
2023/12/19 03:30:36;;;;;;;26.23;18.05;;;6.60;99.90;;;;;;5085603;28;20109;-45
2023/12/19 03:33:02;;;;;;;26.48;19.23;;;6.60;99.90;;;;;;5085334;28;20048;-45
2023/12/19 03:35:28;;;;;;;36.10;21.45;;;6.60;99.90;;;;;;5085963;28;20127;-45
2023/12/19 03:37:54;;;;;;;30.38;20.35;;;6.60;99.90;;;;;;5085176;28;20048;-44
2023/12/19 03:40:19;;;;;;;27.77;19.65;;;6.50;99.90;;;;;;5084428;28;20455;-45
2023/12/19 03:42:45;;;;;;;32.70;20.60;;;6.60;99.90;;;;;;5085992;28;20032;-47
2023/12/19 03:45:11;;;;;;;30.30;20.80;;;6.60;99.90;;;;;;5084101;28;20043;-44
2023/12/19 03:47:38;;;;;;;28.00;19.67;;;6.60;99.90;;;;;;5085924;28;20430;-44
2023/12/19 03:50:05;;;;;;;25.88;18.25;;;6.60;99.90;;;;;;5084847;28;20044;-46
2023/12/19 03:52:30;;;;;;;26.55;17.92;;;6.60;99.90;;;;;;5087441;28;20151;-45
2023/12/19 03:54:56;;;;;;;27.15;18.10;;;6.70;99.90;;;;;;5087278;28;20131;-44
2023/12/19 03:57:22;;;;;;;26.85;17.77;;;6.70;99.90;;;;;;5089745;28;20036;-45
2023/12/19 03:59:47;;;;;;;27.48;17.63;;;6.60;99.90;;;;;;5066397;28;20097;-48
2023/12/19 04:02:13;;;;;;;24.48;17.60;;;6.70;99.90;;;;;;5087298;28;20055;-45
2023/12/19 04:04:39;;;;;;;29.55;18.33;;;6.60;99.90;;;;;;5084029;28;20090;-45
2023/12/19 04:07:04;;;;;;;25.08;17.40;;;6.60;99.90;;;;;;5084732;28;20426;-44
2023/12/19 04:09:30;;;;;;;24.92;17.13;;;6.60;99.90;;;;;;5083913;28;20043;-45
2023/12/19 04:11:58;;;;;;;23.30;16.88;;;6.60;99.90;;;;;;5087273;28;20044;-44
2023/12/19 04:14:24;;;;;;;;;;;6.60;99.90;;;;;;5089767;28;20044;-44
2023/12/19 04:16:49;;;;;;;22.10;15.73;;;6.70;99.90;;;;;;5088600;28;20396;-44
2023/12/19 04:19:15;;;;;;;25.88;16.90;;;6.70;99.90;;;;;;5085563;28;20032;-44
2023/12/19 04:21:41;;;;;;;25.33;16.80;;;6.70;99.90;;;;;;5089280;28;20051;-46
2023/12/19 04:24:07;;;;;;;25.67;17.08;;;6.70;99.90;;;;;;5084446;28;20044;-44
2023/12/19 04:26:33;;;;;;;24.42;16.90;;;6.60;99.90;;;;;;5088838;28;20342;-45
2023/12/19 04:28:58;;;;;;;25.77;17.88;;;6.70;99.90;;;;;;5086476;28;20036;-44
2023/12/19 04:31:24;;;;;;;20.73;15.13;;;6.60;99.90;;;;;;5083272;28;20040;-44
2023/12/19 04:33:49;;;;;;;24.95;17.92;;;6.70;99.90;;;;;;5086895;28;20044;-45
2023/12/19 04:36:15;;;;;;;28.17;18.73;;;6.70;99.90;;;;;;5084432;28;20082;-45
2023/12/19 04:38:41;;;;;;;27.52;18.30;;;6.70;99.90;;;;;;5080747;28;20041;-44
2023/12/19 04:41:06;;;;;;;24.30;17.88;;;6.70;99.90;;;;;;5083682;28;20552;-45
2023/12/19 04:43:32;;;;;;;31.88;20.40;;;6.60;99.90;;;;;;5085624;28;20430;-45
2023/12/19 04:46:00;;;;;;;28.88;19.80;;;6.70;99.90;;;;;;5088474;28;20051;-44
2023/12/19 04:48:27;;;;;;;33.03;20.45;;;6.70;99.90;;;;;;5066536;28;20051;-44
2023/12/19 04:50:52;;;;;;;31.02;20.35;;;6.70;99.90;;;;;;5085178;28;20055;-45
2023/12/19 04:53:19;;;;;;;28.00;20.13;;;6.70;99.90;;;;;;5090872;28;20048;-45
2023/12/19 04:55:45;;;;;;;32.20;20.75;;;6.70;99.90;;;;;;5087329;28;20132;-46
2023/12/19 04:58:10;;;;;;;30.83;19.98;;;6.70;99.90;;;;;;5088675;28;20119;-45
2023/12/19 05:00:36;;;;;;;33.00;20.88;;;6.80;99.90;;;;;;5083286;28;20505;-44
2023/12/19 05:03:03;;;;;;;35.95;21.60;;;6.70;99.90;;;;;;5086067;28;20039;-45
2023/12/19 05:05:28;;;;;;;33.08;20.73;;;6.70;99.90;;;;;;5081410;28;20421;-45
2023/12/19 05:07:54;;;;;;;29.77;20.05;;;6.80;99.90;;;;;;5083375;28;20055;-44
2023/12/19 05:10:20;;;;;;;36.22;21.35;;;6.70;99.90;;;;;;5080988;28;20051;-44
2023/12/19 05:12:45;;;;;;;31.77;20.20;;;6.70;99.90;;;;;;5088397;28;20450;-45
2023/12/19 05:15:11;;;;;;;30.40;20.20;;;6.70;99.90;;;;;;5086572;28;20047;-45
2023/12/19 05:17:36;;;;;;;28.70;19.52;;;6.70;99.90;;;;;;5085079;28;20032;-45
2023/12/19 05:20:02;;;;;;;26.48;19.02;;;6.70;99.90;;;;;;5082863;28;20043;-45
2023/12/19 05:22:29;;;;;;;29.17;18.88;;;6.80;99.90;;;;;;5084243;28;20035;-45
2023/12/19 05:24:54;;;;;;;27.70;17.00;;;6.80;99.90;;;;;;5085753;28;20040;-44
2023/12/19 05:27:20;;;;;;;26.92;18.42;;;6.80;99.90;;;;;;5087586;28;20063;-45
2023/12/19 05:29:45;;;;;;;26.60;17.45;;;6.80;99.90;;;;;;5083517;28;20110;-46
2023/12/19 05:32:11;;;;;;;25.73;17.45;;;6.80;99.90;;;;;;5086161;28;20413;-45
2023/12/19 05:34:36;;;;;;;26.38;17.80;;;6.80;99.90;;;;;;5088010;28;20032;-45
2023/12/19 05:37:03;;;;;;;23.83;16.75;;;6.80;99.90;;;;;;5080271;28;20043;-45
2023/12/19 05:39:30;;;;;;;25.40;16.23;;;6.80;99.90;;;;;;5080815;28;20038;-44
2023/12/19 05:41:56;;;;;;;23.48;15.18;;;6.80;99.90;;;;;;5081772;28;20044;-45
2023/12/19 05:44:25;;;;;;;25.27;15.75;;;6.80;99.90;;;;;;5086374;28;20032;-45
2023/12/19 05:46:52;;;;;;;19.73;14.00;;;6.80;99.90;;;;;;5087232;28;20044;-44
2023/12/19 05:49:20;;;;;;;20.88;14.50;;;6.80;99.90;;;;;;5081766;28;20031;-45
2023/12/19 05:51:46;;;;;;;21.30;14.80;;;6.70;99.90;;;;;;5084147;28;20040;-44
2023/12/19 05:54:11;;;;;;;19.83;14.05;;;6.80;99.90;;;;;;5084718;28;20043;-44
2023/12/19 05:56:37;;;;;;;22.95;15.20;;;6.80;99.90;;;;;;5090553;28;20036;-46
2023/12/19 05:59:03;;;;;;;17.88;13.75;;;6.80;99.90;;;;;;5084013;28;20043;-45
2023/12/19 06:01:28;;;;;;;25.85;13.82;;;6.70;99.90;;;;;;5082628;28;20121;-45
2023/12/19 06:03:57;;;;;;;20.15;13.52;;;6.80;99.90;;;;;;5085386;28;20051;-45
2023/12/19 06:06:22;;;;;;;18.23;13.60;;;6.80;99.90;;;;;;5082688;28;20036;-45
2023/12/19 06:08:48;;;;;;;16.58;12.70;;;6.80;99.90;;;;;;5084776;28;20036;-45
2023/12/19 06:11:24;;;;;;;19.42;14.25;;;6.80;99.90;;;;;;5077596;28;20051;-44
2023/12/19 06:13:49;;;;;;;15.10;12.73;;;6.80;99.90;;;;;;5081480;28;20384;-44
2023/12/19 06:16:15;;;;;;;17.55;12.77;;;6.80;99.90;;;;;;5081217;28;20719;-45
2023/12/19 06:18:41;;;;;;;18.08;12.68;;;6.70;99.90;;;;;;5085888;28;20616;-43
2023/12/19 06:21:06;;;;;;;16.83;11.98;;;6.80;99.90;;;;;;5079628;28;20040;-44
2023/12/19 06:23:32;;;;;;;19.33;12.52;;;6.70;99.90;;;;;;5086663;28;20252;-45
2023/12/19 06:25:57;;;;;;;20.25;13.07;;;6.80;99.90;;;;;;5086003;28;20032;-45
2023/12/19 06:28:23;;;;;;;16.23;12.20;;;6.80;99.90;;;;;;5087512;28;20040;-44
2023/12/19 06:30:49;;;;;;;16.10;12.13;;;6.80;99.90;;;;;;5079506;28;20082;-44
2023/12/19 06:33:15;;;;;;;17.20;12.20;;;6.80;99.90;;;;;;5084075;28;20153;-45
2023/12/19 06:35:44;;;;;;;16.13;10.85;;;6.80;99.90;;;;;;5083583;28;20082;-45
2023/12/19 06:38:10;;;;;;;17.80;12.48;;;6.70;99.90;;;;;;5081926;28;20036;-44
2023/12/19 06:40:36;;;;;;;14.95;10.98;;;6.80;99.90;;;;;;5080376;28;20047;-45
2023/12/19 06:43:03;;;;;;;18.13;12.00;;;6.80;99.90;;;;;;5080434;28;20040;-45
2023/12/19 06:45:29;;;;;;;16.48;11.65;;;6.80;99.90;;;;;;5083457;28;20032;-44
2023/12/19 06:47:54;;;;;;;15.55;10.50;;;6.90;99.90;;;;;;5083739;28;20036;-45
2023/12/19 06:50:20;;;;;;;16.67;11.60;;;6.80;99.90;;;;;;5078833;28;20036;-45
2023/12/19 06:52:46;;;;;;;15.27;11.40;;;6.80;99.90;;;;;;5085117;28;20047;-44
2023/12/19 06:55:12;;;;;;;16.60;11.60;;;6.90;99.90;;;;;;5084253;28;20055;-45
2023/12/19 06:57:38;;;;;;;14.02;10.85;;;6.90;99.90;;;;;;5085079;28;20503;-45
2023/12/19 07:00:06;;;;;;;16.88;11.02;;;6.90;99.90;;;;;;5081783;28;20074;-45
2023/12/19 07:02:31;;;;;;;14.52;10.25;;;6.90;99.90;;;;;;5083793;28;20167;-45
2023/12/19 07:04:57;;;;;;;15.40;10.45;;;6.90;99.90;;;;;;5083184;28;20571;-45
2023/12/19 07:07:24;;;;;;;15.75;10.32;;;6.90;99.90;;;;;;5085654;28;20114;-48
2023/12/19 07:09:50;;;;;;;15.68;10.48;;;6.90;99.90;;;;;;5085578;28;20539;-45
2023/12/19 07:12:15;;;;;;;15.88;10.77;;;7.00;99.90;;;;;;5088859;28;20056;-48
2023/12/19 07:14:41;;;;;;;12.73;10.10;;;7.00;99.90;;;;;;5089140;28;20035;-44
2023/12/19 07:17:06;;;;;;;13.55;10.18;;;7.00;99.90;;;;;;5086555;28;20177;-47
2023/12/19 07:19:33;;;;;;;11.32;9.25;;;7.00;99.90;;;;;;5084634;28;20135;-45
2023/12/19 07:21:59;;;;;;;12.23;9.18;;;6.90;99.90;;;;;;5080186;28;20178;-44
2023/12/19 07:24:25;;;;;;;12.57;9.35;;;7.00;99.90;;;;;;5066356;28;20134;-44
2023/12/19 07:26:50;;;;;;;11.90;9.35;;;7.00;99.90;;;;;;5085609;28;20032;-45
2023/12/19 07:29:16;;;;;;;12.50;9.70;;;7.00;99.90;;;;;;5088484;28;20044;-45
2023/12/19 07:31:42;;;;;;;12.57;8.98;;;7.00;99.90;;;;;;5079923;28;21775;-44
2023/12/19 07:34:07;;;;;;;11.18;8.75;;;7.00;99.90;;;;;;5089137;28;20484;-46
2023/12/19 07:36:33;;;;;;;12.40;8.85;;;7.00;99.90;;;;;;5084967;28;20131;-45
2023/12/19 07:39:00;;;;;;;10.30;8.27;;;7.00;99.90;;;;;;5088902;28;20047;-44
2023/12/19 07:41:26;;;;;;;11.85;8.77;;;7.00;99.90;;;;;;5079221;28;20042;-46
2023/12/19 07:43:52;;;;;;;12.65;8.15;;;7.00;99.90;;;;;;5086020;28;20095;-45
2023/12/19 07:46:19;;;;;;;9.65;8.43;;;7.00;99.90;;;;;;5088874;28;20052;-45
2023/12/19 07:48:45;;;;;;;10.98;8.48;;;7.00;99.90;;;;;;5089283;28;21156;-44
2023/12/19 07:51:23;;;;;;;10.27;8.43;;;7.00;99.90;;;;;;5087262;28;20032;-44
2023/12/19 07:53:49;;;;;;;10.23;7.97;;;7.00;99.90;;;;;;5089497;28;20036;-44
2023/12/19 07:56:15;;;;;;;10.07;7.95;;;7.10;99.90;;;;;;5085236;28;20142;-45
2023/12/19 07:58:40;;;;;;;9.30;8.00;;;7.10;99.90;;;;;;5083116;28;20158;-46
2023/12/19 08:01:10;;;;;;;10.13;8.05;;;7.10;99.90;;;;;;5082470;28;20063;-46
2023/12/19 08:03:36;;;;;;;8.50;7.60;;;7.00;99.90;;;;;;5081234;28;20043;-46
2023/12/19 08:06:03;;;;;;;9.88;8.30;;;7.20;99.90;;;;;;5081578;28;20055;-46
2023/12/19 08:08:29;;;;;;;12.80;8.77;;;7.10;99.90;;;;;;5088050;28;20040;-45
2023/12/19 08:10:54;;;;;;;10.25;8.38;;;7.20;99.90;;;;;;5083053;28;20370;-46
2023/12/19 08:13:20;;;;;;;10.35;8.65;;;7.20;99.90;;;;;;5084982;28;20142;-47
2023/12/19 08:15:47;;;;;;;10.40;8.85;;;7.20;99.90;;;;;;5084789;28;20035;-45
2023/12/19 08:18:13;;;;;;;13.80;10.23;;;7.20;99.90;;;;;;5085600;28;20101;-46
2023/12/19 08:20:39;;;;;;;12.57;9.27;;;7.10;99.90;;;;;;5083538;28;20035;-46
2023/12/19 08:23:04;;;;;;;12.05;9.98;;;7.20;99.90;;;;;;5084491;28;20158;-46
2023/12/19 08:25:30;;;;;;;12.82;9.32;;;7.30;99.90;;;;;;5087383;28;20044;-46
2023/12/19 08:27:55;;;;;;;12.18;9.25;;;7.30;99.90;;;;;;5084403;28;20485;-47
2023/12/19 08:30:24;;;;;;;15.32;10.32;;;7.20;99.90;;;;;;5086004;28;20040;-45
2023/12/19 08:32:50;;;;;;;13.90;9.63;;;7.40;99.90;;;;;;5068645;28;20080;-45
2023/12/19 08:35:17;;;;;;;11.20;9.07;;;7.30;99.90;;;;;;5088667;28;20092;-46
2023/12/19 08:37:43;;;;;;;14.05;10.55;;;7.30;99.90;;;;;;5064551;28;20131;-46
2023/12/19 08:40:09;;;;;;;11.90;9.68;;;7.40;99.90;;;;;;5082373;28;20492;-47
2023/12/19 08:42:35;;;;;;;12.27;9.73;;;7.40;99.90;;;;;;5089569;28;20047;-47
2023/12/19 08:45:00;;;;;;;13.68;10.20;;;7.40;99.90;;;;;;5072959;28;20474;-45
2023/12/19 08:47:26;;;;;;;12.85;10.07;;;7.40;99.90;;;;;;5090802;28;20128;-45
2023/12/19 08:49:58;;;;;;;14.18;10.60;;;;;;;;;;5082801;28;20036;-46
2023/12/19 08:52:26;;;;;;;16.80;11.40;;;7.50;99.90;;;;;;5087761;28;20386;-45
2023/12/19 08:54:52;;;;;;;13.60;10.98;;;7.50;99.90;;;;;;5085149;28;20451;-45
2023/12/19 08:57:18;;;;;;;14.73;10.90;;;7.50;99.90;;;;;;5090408;28;20040;-46
2023/12/19 08:59:44;;;;;;;17.38;11.38;;;7.50;99.90;;;;;;5088187;28;20398;-48
2023/12/19 09:02:10;;;;;;;19.90;12.60;;;7.50;99.90;;;;;;5085987;28;20036;-46
2023/12/19 09:04:36;;;;;;;15.38;11.27;;;7.50;99.90;;;;;;5090834;28;20049;-48
2023/12/19 09:07:02;;;;;;;16.23;11.85;;;7.60;99.90;;;;;;5088716;28;20473;-46
2023/12/19 09:09:28;;;;;;;19.70;12.02;;;7.60;99.90;;;;;;5086957;28;20184;-47
2023/12/19 09:11:56;;;;;;;21.65;12.43;;;7.60;99.90;;;;;;5089948;28;20047;-46
2023/12/19 09:14:22;;;;;;;21.30;12.52;;;7.60;99.90;;;;;;5089397;28;20123;-46
2023/12/19 09:16:49;;;;;;;18.80;11.80;;;7.50;99.90;;;;;;5092483;28;20119;-47
2023/12/19 09:19:15;;;;;;;18.40;11.55;;;7.60;99.90;;;;;;5091282;28;20397;-45
2023/12/19 09:21:41;;;;;;;18.95;12.07;;;7.60;99.90;;;;;;5090460;28;20043;-45
2023/12/19 09:24:06;;;;;;;17.00;11.93;;;7.90;99.90;;;;;;5091044;28;20398;-47
2023/12/19 09:26:33;;;;;;;22.92;12.82;;;7.60;99.90;;;;;;5090054;28;20115;-45
2023/12/19 09:28:58;;;;;;;20.95;12.90;;;7.70;99.90;;;;;;5089801;28;20044;-46
2023/12/19 09:31:24;;;;;;;20.50;12.60;;;7.60;99.90;;;;;;5088789;28;20047;-46
2023/12/19 09:33:50;;;;;;;20.38;13.10;;;7.70;99.90;;;;;;5091223;28;20029;-46
2023/12/19 09:36:21;;;;;;;18.25;12.45;;;7.70;99.90;;;;;;5087986;28;20060;-48
2023/12/19 09:38:47;;;;;;;21.90;13.18;;;7.70;99.90;;;;;;5090990;28;20070;-45
2023/12/19 09:41:13;;;;;;;18.70;13.07;;;7.80;99.90;;;;;;5088809;28;20493;-47
2023/12/19 09:43:40;;;;;;;20.85;13.80;;;7.80;99.90;;;;;;5089491;28;20405;-45
2023/12/19 09:46:07;;;;;;;19.75;14.13;;;7.80;99.90;;;;;;5089961;28;20040;-44
2023/12/19 09:48:34;;;;;;;19.88;14.50;;;7.80;99.90;;;;;;5092980;28;20489;-46
2023/12/19 09:51:05;;;;;;;21.75;14.90;;;7.80;99.90;;;;;;5084571;28;20040;-45
2023/12/19 09:53:34;;;;;;;22.27;15.25;;;7.80;99.90;;;;;;5090753;28;20067;-46
2023/12/19 09:56:01;;;;;;;21.05;14.93;;;7.90;99.90;;;;;;5090600;28;20044;-47
2023/12/19 09:58:30;;;;;;;23.35;15.10;;;7.80;99.90;;;;;;5091700;28;20063;-45
2023/12/19 10:00:59;;;;;;;21.98;15.23;;;7.90;99.90;;;;;;5089250;28;20127;-45
2023/12/19 10:03:28;;;;;;;22.20;15.27;;;8.10;99.90;;;;;;5087623;28;20040;-46
2023/12/19 10:05:54;;;;;;;25.13;16.23;;;7.70;99.90;;;;;;5087879;28;20036;-46
2023/12/19 10:08:20;;;;;;;25.13;16.02;;;8.00;99.90;;;;;;5091530;28;20115;-47
2023/12/19 10:10:50;;;;;;;21.77;15.97;;;;;;;;;;5089351;28;20069;-48
2023/12/19 10:13:30;;;;;;;24.42;16.65;;;7.90;99.90;;;;;;5089859;28;20104;-46
2023/12/19 10:16:17;;;;;;;24.02;16.58;;;8.00;99.90;;;;;;5090312;28;20493;-46
2023/12/19 10:18:44;;;;;;;25.00;16.73;;;8.00;99.90;;;;;;5090309;28;20063;-45
2023/12/19 10:21:13;;;;;;;24.77;16.70;;;8.50;99.90;;;;;;5092245;28;20097;-45
2023/12/19 10:23:40;;;;;;;24.63;17.02;;;8.30;99.90;;;;;;5092332;28;20071;-46
2023/12/19 10:26:07;;;;;;;20.73;16.83;;;8.20;99.90;;;;;;5090950;28;20052;-45
2023/12/19 10:28:33;;;;;;;26.85;17.42;;;8.30;99.90;;;;;;5086189;28;20040;-46
2023/12/19 10:31:05;;;;;;;21.38;16.58;;;7.90;99.90;;;;;;5093037;28;20424;-47
2023/12/19 10:33:40;;;;;;;21.48;16.17;;;8.50;99.90;;;;;;5091869;28;20088;-46
2023/12/19 10:36:06;;;;;;;24.27;16.65;;;8.20;99.90;;;;;;5087955;28;20459;-46
2023/12/19 10:38:45;;;;;;;24.33;16.77;;;8.50;99.90;;;;;;5093336;28;20036;-46
2023/12/19 10:41:26;;;;;;;23.35;16.70;;;8.10;99.90;;;;;;5091181;28;20401;-45
2023/12/19 10:43:56;;;;;;;24.48;16.73;;;8.30;99.90;;;;;;5092110;28;20040;-45
2023/12/19 10:46:25;;;;;;;23.63;17.05;;;8.20;99.90;;;;;;5091922;28;20039;-47
2023/12/19 10:48:57;;;;;;;23.38;16.38;;;8.20;99.90;;;;;;5090328;28;20401;-45
2023/12/19 10:51:33;;;;;;;23.88;16.30;;;8.50;99.90;;;;;;5074175;28;20044;-45
2023/12/19 10:54:12;;;;;;;19.35;15.27;;;8.20;99.90;;;;;;5078588;28;20256;-45
2023/12/19 10:56:44;;;;;;;23.13;15.68;;;8.20;99.90;;;;;;5092514;28;20040;-49
2023/12/19 10:59:20;;;;;;;22.17;15.93;;;8.20;99.90;;;;;;5092529;28;20174;-46
2023/12/19 11:01:50;;;;;;;25.88;16.33;;;8.30;99.90;;;;;;5081599;28;20056;-46
2023/12/19 11:04:22;;;;;;;26.55;15.45;;;8.30;99.90;;;;;;5089727;28;20048;-46
2023/12/19 11:06:58;;;;;;;26.13;16.10;;;8.40;99.90;;;;;;5091242;28;20443;-46
2023/12/19 11:09:30;;;;;;;22.08;14.63;;;8.50;99.90;;;;;;5087136;28;20051;-46
2023/12/19 11:11:58;;;;;;;22.67;14.77;;;8.20;99.90;;;;;;5093825;28;20105;-45
2023/12/19 11:14:25;;;;;;;17.95;13.98;;;8.20;99.90;;;;;;5093191;28;20036;-46
2023/12/19 11:17:07;;;;;;;19.95;14.70;;;8.10;99.90;;;;;;5092384;28;20044;-45
2023/12/19 11:19:51;;;;;;;21.27;15.00;;;8.30;99.90;;;;;;5086090;28;20082;-46
2023/12/19 11:22:20;;;;;;;16.67;14.07;;;8.40;99.90;;;;;;5090279;28;20052;-45
2023/12/19 11:25:17;;;;;;;22.15;14.88;;;8.60;99.90;;;;;;5074311;28;20047;-46
2023/12/19 11:27:53;;;;;;;24.08;15.13;;;8.30;99.90;;;;;;5087903;28;20067;-45
2023/12/19 11:30:40;;;;;;;19.00;14.85;;;8.20;99.90;;;;;;5085219;28;20036;-45
2023/12/19 11:33:13;;;;;;;25.05;16.33;;;8.40;99.90;;;;;;5066614;28;20052;-47
2023/12/19 11:35:41;;;;;;;20.88;15.77;;;8.20;99.90;;;;;;5080577;28;20076;-46
2023/12/19 11:38:21;;;;;;;21.83;15.60;;;8.60;99.90;;;;;;5079850;28;20118;-45
2023/12/19 11:40:48;;;;;;;20.63;15.27;;;8.70;99.90;;;;;;5092041;28;20059;-46
2023/12/19 11:43:31;;;;;;;19.77;15.98;;;8.50;99.90;;;;;;5080718;28;20036;-46
2023/12/19 11:45:58;;;;;;;21.85;15.45;;;8.50;99.90;;;;;;5083184;28;20043;-46
2023/12/19 11:48:56;;;;;;;21.10;15.55;;;8.60;99.90;;;;;;5091445;28;20210;-46
2023/12/19 11:51:50;;;;;;;23.25;16.80;;;8.70;99.90;;;;;;5090075;28;20060;-46
2023/12/19 11:54:16;;;;;;;20.60;15.20;;;8.40;99.90;;;;;;5090527;28;20067;-46
2023/12/19 11:56:43;;;;;;;24.17;16.08;;;8.50;99.90;;;;;;5095096;28;20495;-46
2023/12/19 11:59:09;;;;;;;22.90;15.90;;;8.60;99.90;;;;;;5091921;28;20112;-45
2023/12/19 12:01:41;;;;;;;21.00;15.00;;;8.80;99.90;;;;;;5086963;28;20467;-46
2023/12/19 12:04:10;;;;;;;22.65;16.23;;;9.00;99.90;;;;;;5094945;28;20401;-46
2023/12/19 12:06:36;;;;;;;24.23;16.48;;;8.30;99.90;;;;;;5095019;28;20421;-46
2023/12/19 12:09:05;;;;;;;24.52;16.83;;;8.70;99.90;;;;;;5088413;28;20076;-47
2023/12/19 12:11:44;;;;;;;23.08;16.88;;;8.50;99.90;;;;;;5078514;28;20122;-46
2023/12/19 12:14:10;;;;;;;22.75;16.05;;;8.50;99.90;;;;;;5094041;28;20036;-46
2023/12/19 12:16:40;;;;;;;19.73;15.55;;;8.40;99.90;;;;;;5097477;28;20389;-45
2023/12/19 12:19:16;;;;;;;23.67;16.20;;;8.30;99.90;;;;;;5095885;28;20043;-48
2023/12/19 12:21:49;;;;;;;23.77;15.93;;;8.50;99.90;;;;;;5095085;28;20049;-46
2023/12/19 12:24:25;;;;;;;23.15;16.27;;;8.50;99.90;;;;;;5094463;28;20067;-46
2023/12/19 12:27:06;;;;;;;22.52;16.30;;;8.50;99.90;;;;;;5082566;28;20032;-45
2023/12/19 12:29:36;;;;;;;21.27;16.02;;;8.50;99.90;;;;;;5092292;28;20116;-46
2023/12/19 12:32:03;;;;;;;18.33;15.02;;;8.70;99.90;;;;;;5090577;28;20393;-46
2023/12/19 12:34:32;;;;;;;22.50;16.90;;;8.60;99.90;;;;;;5093813;28;20043;-48
2023/12/19 12:36:58;;;;;;;20.17;16.90;;;8.40;99.90;;;;;;5094479;28;20044;-47
2023/12/19 12:39:23;;;;;;;24.77;16.73;;;8.50;99.90;;;;;;5094051;28;20066;-45